CPA94 VABB-VAAH
Flight info
| Callsign | CPA94 |
|---|---|
| Flight time | 0h 49m |
| Altitude | 33000 |
| Route | ANOLI2A ISRIS G208 APANO APANO1A |
| Aircraft | B48F/H-SDE3FGHIM1M2RWXY/LB1 |
Departure
| Time | 2026-05-05 16:45 |
|---|---|
| Airport | Chhatrapati Shivaji Maharaj International Airport (VABB) |
Arrival
| Time | 2026-05-05 17:35 |
|---|---|
| Airport | Sardar Vallabh Patel International Airport (VAAH) |
| Time | Latitude | Longitude | Altitude | Speed | Heading |
|---|---|---|---|---|---|
| 2026-05-05 16:12 | 19.09507 | 72.86753 | 39 ft | 0 kts | 321° |
| 2026-05-05 16:29 | 19.09499 | 72.86759 | 39 ft | 4 kts | 318° |
| 2026-05-05 16:29 | 19.09482 | 72.86775 | 38 ft | 3 kts | 320° |
| 2026-05-05 16:30 | 19.09466 | 72.86789 | 37 ft | 4 kts | 287° |
| 2026-05-05 16:30 | 19.09462 | 72.86807 | 36 ft | 4 kts | 247° |
| 2026-05-05 16:30 | 19.09474 | 72.86831 | 36 ft | 4 kts | 231° |
| 2026-05-05 16:30 | 19.09489 | 72.86851 | 36 ft | 1 kts | 228° |
| 2026-05-05 16:31 | 19.09490 | 72.86851 | 36 ft | 2 kts | 228° |
| 2026-05-05 16:36 | 19.09486 | 72.86847 | 37 ft | 2 kts | 228° |
| 2026-05-05 16:36 | 19.09467 | 72.86824 | 35 ft | 7 kts | 229° |
| 2026-05-05 16:36 | 19.09425 | 72.86773 | 39 ft | 10 kts | 229° |
| 2026-05-05 16:37 | 19.09378 | 72.86715 | 39 ft | 11 kts | 228° |
| 2026-05-05 16:37 | 19.09326 | 72.86656 | 39 ft | 11 kts | 228° |
| 2026-05-05 16:37 | 19.09281 | 72.86619 | 39 ft | 0 kts | 194° |
| 2026-05-05 16:37 | 19.09276 | 72.86619 | 39 ft | 1 kts | 184° |
| 2026-05-05 16:38 | 19.09267 | 72.86622 | 39 ft | 2 kts | 165° |
| 2026-05-05 16:38 | 19.09249 | 72.86635 | 39 ft | 4 kts | 141° |
| 2026-05-05 16:38 | 19.09224 | 72.86660 | 39 ft | 6 kts | 135° |
| 2026-05-05 16:38 | 19.09189 | 72.86697 | 39 ft | 9 kts | 135° |
| 2026-05-05 16:39 | 19.09135 | 72.86753 | 39 ft | 13 kts | 135° |
| 2026-05-05 16:39 | 19.09068 | 72.86829 | 39 ft | 16 kts | 129° |
| 2026-05-05 16:39 | 19.09038 | 72.86938 | 40 ft | 16 kts | 82° |
| 2026-05-05 16:39 | 19.09044 | 72.87068 | 40 ft | 20 kts | 89° |
| 2026-05-05 16:40 | 19.09047 | 72.87212 | 40 ft | 19 kts | 88° |
| 2026-05-05 16:40 | 19.09051 | 72.87350 | 39 ft | 18 kts | 89° |
| 2026-05-05 16:40 | 19.09053 | 72.87481 | 39 ft | 18 kts | 89° |
| 2026-05-05 16:40 | 19.09055 | 72.87608 | 39 ft | 17 kts | 89° |
| 2026-05-05 16:41 | 19.09057 | 72.87730 | 39 ft | 16 kts | 89° |
| 2026-05-05 16:41 | 19.09059 | 72.87846 | 39 ft | 16 kts | 89° |
| 2026-05-05 16:41 | 19.09061 | 72.87958 | 39 ft | 15 kts | 89° |
| 2026-05-05 16:41 | 19.09057 | 72.88027 | 39 ft | 2 kts | 113° |
| 2026-05-05 16:42 | 19.09048 | 72.88040 | 39 ft | 2 kts | 129° |
| 2026-05-05 16:42 | 19.09039 | 72.88045 | 39 ft | 1 kts | 153° |
| 2026-05-05 16:42 | 19.09019 | 72.88048 | 38 ft | 6 kts | 174° |
| 2026-05-05 16:42 | 19.08949 | 72.88051 | 36 ft | 14 kts | 179° |
| 2026-05-05 16:43 | 19.08896 | 72.88046 | 36 ft | 1 kts | 209° |
| 2026-05-05 16:43 | 19.08892 | 72.88041 | 36 ft | 1 kts | 228° |
| 2026-05-05 16:43 | 19.08891 | 72.88036 | 36 ft | 1 kts | 245° |
| 2026-05-05 16:43 | 19.08890 | 72.88026 | 36 ft | 3 kts | 259° |
| 2026-05-05 16:44 | 19.08888 | 72.87969 | 36 ft | 15 kts | 269° |
| 2026-05-05 16:44 | 19.08886 | 72.87702 | 37 ft | 64 kts | 269° |
| 2026-05-05 16:44 | 19.08876 | 72.87036 | 39 ft | 115 kts | 269° |
| 2026-05-05 16:44 | 19.08861 | 72.86042 | 36 ft | 153 kts | 269° |
| 2026-05-05 16:45 | 19.08831 | 72.84809 | 86 ft | 180 kts | 268° |
| 2026-05-05 16:45 | 19.08776 | 72.83477 | 551 ft | 186 kts | 265° |
| 2026-05-05 16:45 | 19.08709 | 72.82045 | 1040 ft | 197 kts | 274° |
| 2026-05-05 16:45 | 19.08797 | 72.80573 | 1761 ft | 202 kts | 270° |
| 2026-05-05 16:46 | 19.08804 | 72.78998 | 1994 ft | 228 kts | 266° |
| 2026-05-05 16:46 | 19.08805 | 72.77837 | 2055 ft | 248 kts | 275° |
| 2026-05-05 16:46 | 19.09511 | 72.76119 | 2684 ft | 260 kts | 311° |
| 2026-05-05 16:46 | 19.10988 | 72.75006 | 3675 ft | 268 kts | 339° |
| 2026-05-05 16:47 | 19.12833 | 72.74676 | 4629 ft | 273 kts | 355° |
| 2026-05-05 16:47 | 19.14739 | 72.74666 | 5553 ft | 275 kts | 359° |
| 2026-05-05 16:47 | 19.17306 | 72.74680 | 6722 ft | 280 kts | 355° |
| 2026-05-05 16:47 | 19.18600 | 72.74610 | 7268 ft | 282 kts | 354° |
| 2026-05-05 16:48 | 19.20582 | 72.74462 | 8041 ft | 287 kts | 354° |
| 2026-05-05 16:48 | 19.22595 | 72.74336 | 8830 ft | 292 kts | 356° |
| 2026-05-05 16:48 | 19.24645 | 72.74232 | 9610 ft | 297 kts | 356° |
| 2026-05-05 16:48 | 19.26731 | 72.74123 | 10247 ft | 306 kts | 356° |
| 2026-05-05 16:49 | 19.28954 | 72.73996 | 10393 ft | 334 kts | 356° |
| 2026-05-05 16:49 | 19.31367 | 72.74083 | 10469 ft | 361 kts | 7° |
| 2026-05-05 16:49 | 19.33941 | 72.74476 | 10639 ft | 382 kts | 9° |
| 2026-05-05 16:49 | 19.36562 | 72.74937 | 11446 ft | 382 kts | 8° |
| 2026-05-05 16:50 | 19.39210 | 72.75350 | 12138 ft | 386 kts | 6° |
| 2026-05-05 16:50 | 19.41884 | 72.75734 | 12850 ft | 389 kts | 6° |
| 2026-05-05 16:50 | 19.44542 | 72.76135 | 13515 ft | 393 kts | 7° |
| 2026-05-05 16:50 | 19.47255 | 72.76563 | 14113 ft | 396 kts | 7° |
| 2026-05-05 16:51 | 19.49987 | 72.76988 | 14733 ft | 398 kts | 7° |
| 2026-05-05 16:51 | 19.52746 | 72.77408 | 15309 ft | 401 kts | 7° |
| 2026-05-05 16:51 | 19.55521 | 72.77832 | 15894 ft | 404 kts | 7° |
| 2026-05-05 16:51 | 19.58308 | 72.78262 | 16476 ft | 406 kts | 7° |
| 2026-05-05 16:52 | 19.61113 | 72.78696 | 17033 ft | 409 kts | 7° |
| 2026-05-05 16:52 | 19.63952 | 72.79133 | 17579 ft | 412 kts | 7° |
| 2026-05-05 16:52 | 19.66798 | 72.79570 | 18124 ft | 415 kts | 7° |
| 2026-05-05 16:52 | 19.69660 | 72.80011 | 18579 ft | 418 kts | 7° |
| 2026-05-05 16:53 | 19.72547 | 72.80457 | 19036 ft | 420 kts | 7° |
| 2026-05-05 16:53 | 19.75452 | 72.80905 | 19489 ft | 423 kts | 7° |
| 2026-05-05 16:53 | 19.78375 | 72.81356 | 19931 ft | 425 kts | 7° |
| 2026-05-05 16:53 | 19.81315 | 72.81809 | 20366 ft | 428 kts | 7° |
| 2026-05-05 16:54 | 19.84276 | 72.82267 | 20784 ft | 431 kts | 7° |
| 2026-05-05 16:54 | 19.87250 | 72.82726 | 21199 ft | 433 kts | 7° |
| 2026-05-05 16:54 | 19.90202 | 72.83181 | 21568 ft | 436 kts | 6° |
| 2026-05-05 16:54 | 19.93216 | 72.83647 | 21967 ft | 439 kts | 6° |
| 2026-05-05 16:55 | 19.96243 | 72.84116 | 22347 ft | 441 kts | 6° |
| 2026-05-05 16:55 | 19.99287 | 72.84587 | 22743 ft | 443 kts | 6° |
| 2026-05-05 16:55 | 20.02355 | 72.85061 | 23112 ft | 446 kts | 6° |
| 2026-05-05 16:55 | 20.05432 | 72.85538 | 23467 ft | 448 kts | 6° |
| 2026-05-05 16:56 | 20.08529 | 72.86012 | 23769 ft | 450 kts | 5° |
| 2026-05-05 16:56 | 20.11648 | 72.86383 | 24068 ft | 452 kts | 5° |
| 2026-05-05 16:56 | 20.14765 | 72.86800 | 24367 ft | 453 kts | 5° |
| 2026-05-05 16:56 | 20.17906 | 72.87224 | 24665 ft | 455 kts | 5° |
| 2026-05-05 16:57 | 20.21055 | 72.87620 | 24957 ft | 456 kts | 4° |
| 2026-05-05 16:57 | 20.24212 | 72.88010 | 25261 ft | 458 kts | 5° |
| 2026-05-05 16:57 | 20.27386 | 72.88418 | 25556 ft | 460 kts | 5° |
| 2026-05-05 16:57 | 20.30567 | 72.88833 | 25837 ft | 462 kts | 5° |
| 2026-05-05 16:58 | 20.33763 | 72.89242 | 26139 ft | 463 kts | 4° |
| 2026-05-05 16:58 | 20.36967 | 72.89648 | 26421 ft | 465 kts | 4° |
| 2026-05-05 16:58 | 20.40185 | 72.90059 | 26710 ft | 466 kts | 4° |
| 2026-05-05 16:58 | 20.43410 | 72.90475 | 26995 ft | 468 kts | 4° |
| 2026-05-05 16:59 | 20.46647 | 72.90891 | 27285 ft | 469 kts | 4° |
| 2026-05-05 16:59 | 20.49898 | 72.91308 | 27576 ft | 471 kts | 4° |
| 2026-05-05 16:59 | 20.53154 | 72.91725 | 27874 ft | 472 kts | 4° |
| 2026-05-05 16:59 | 20.56382 | 72.92140 | 28154 ft | 474 kts | 4° |
| 2026-05-05 17:00 | 20.59664 | 72.92562 | 28452 ft | 476 kts | 4° |
| 2026-05-05 17:00 | 20.62961 | 72.92985 | 28729 ft | 478 kts | 4° |
| 2026-05-05 17:00 | 20.66265 | 72.93410 | 29013 ft | 479 kts | 4° |
| 2026-05-05 17:00 | 20.69581 | 72.93837 | 29327 ft | 481 kts | 4° |
| 2026-05-05 17:01 | 20.72909 | 72.94265 | 29615 ft | 483 kts | 4° |
| 2026-05-05 17:01 | 20.76255 | 72.94653 | 29924 ft | 483 kts | 359° |
| 2026-05-05 17:01 | 20.79615 | 72.94781 | 30143 ft | 485 kts | 359° |
| 2026-05-05 17:01 | 20.82997 | 72.94899 | 30370 ft | 487 kts | 359° |
| 2026-05-05 17:02 | 20.86389 | 72.95021 | 30600 ft | 489 kts | 359° |
| 2026-05-05 17:02 | 20.89800 | 72.95149 | 30829 ft | 492 kts | 359° |
| 2026-05-05 17:02 | 20.93234 | 72.95275 | 31031 ft | 495 kts | 359° |
| 2026-05-05 17:02 | 20.96679 | 72.95399 | 31271 ft | 497 kts | 359° |
| 2026-05-05 17:03 | 21.00145 | 72.95525 | 31515 ft | 500 kts | 359° |
| 2026-05-05 17:03 | 21.03624 | 72.95653 | 31846 ft | 500 kts | 359° |
| 2026-05-05 17:03 | 21.07104 | 72.95781 | 32204 ft | 500 kts | 359° |
| 2026-05-05 17:03 | 21.10443 | 72.95903 | 32570 ft | 500 kts | 358° |
| 2026-05-05 17:04 | 21.13561 | 72.96016 | 32857 ft | 502 kts | 358° |
| 2026-05-05 17:04 | 21.17071 | 72.96144 | 32860 ft | 505 kts | 359° |
| 2026-05-05 17:04 | 21.24051 | 72.96471 | 32855 ft | 500 kts | 360° |
| 2026-05-05 17:05 | 21.30995 | 72.96861 | 32857 ft | 498 kts | 359° |
| 2026-05-05 17:05 | 21.37925 | 72.97202 | 32857 ft | 497 kts | 359° |
| 2026-05-05 17:06 | 21.41366 | 72.97391 | 32129 ft | 497 kts | 359° |
| 2026-05-05 17:06 | 21.44827 | 72.97574 | 31437 ft | 496 kts | 359° |
| 2026-05-05 17:06 | 21.48270 | 72.97749 | 30770 ft | 495 kts | 359° |
| 2026-05-05 17:06 | 21.51667 | 72.97927 | 30696 ft | 481 kts | 359° |
| 2026-05-05 17:07 | 21.58347 | 72.98025 | 30408 ft | 490 kts | 349° |
| 2026-05-05 17:07 | 21.61679 | 72.97325 | 29690 ft | 487 kts | 342° |
| 2026-05-05 17:07 | 21.64933 | 72.96364 | 28993 ft | 483 kts | 342° |
| 2026-05-05 17:08 | 21.68115 | 72.95424 | 28311 ft | 479 kts | 342° |
| 2026-05-05 17:08 | 21.71322 | 72.94487 | 27636 ft | 475 kts | 343° |
| 2026-05-05 17:08 | 21.74504 | 72.93558 | 26957 ft | 471 kts | 343° |
| 2026-05-05 17:08 | 21.77655 | 72.92632 | 26281 ft | 468 kts | 343° |
| 2026-05-05 17:09 | 21.80784 | 72.91710 | 25606 ft | 465 kts | 343° |
| 2026-05-05 17:09 | 21.83891 | 72.90797 | 24925 ft | 462 kts | 343° |
| 2026-05-05 17:09 | 21.86983 | 72.89890 | 24252 ft | 459 kts | 343° |
| 2026-05-05 17:09 | 21.90060 | 72.88985 | 23587 ft | 457 kts | 343° |
| 2026-05-05 17:10 | 21.93121 | 72.88084 | 22855 ft | 453 kts | 343° |
| 2026-05-05 17:10 | 21.96147 | 72.87194 | 22177 ft | 448 kts | 343° |
| 2026-05-05 17:10 | 21.99132 | 72.86316 | 21510 ft | 443 kts | 343° |
| 2026-05-05 17:10 | 22.02089 | 72.85444 | 20840 ft | 438 kts | 343° |
| 2026-05-05 17:11 | 22.05007 | 72.84584 | 20176 ft | 433 kts | 343° |
| 2026-05-05 17:11 | 22.07905 | 72.83730 | 19519 ft | 429 kts | 343° |
| 2026-05-05 17:11 | 22.10767 | 72.82886 | 18861 ft | 425 kts | 343° |
| 2026-05-05 17:11 | 22.13601 | 72.82049 | 18216 ft | 421 kts | 343° |
| 2026-05-05 17:12 | 22.16418 | 72.81217 | 17509 ft | 416 kts | 343° |
| 2026-05-05 17:12 | 22.19184 | 72.80402 | 16967 ft | 408 kts | 343° |
| 2026-05-05 17:12 | 22.21907 | 72.79599 | 16325 ft | 403 kts | 343° |
| 2026-05-05 17:12 | 22.24561 | 72.78813 | 15691 ft | 398 kts | 343° |
| 2026-05-05 17:13 | 22.27216 | 72.78036 | 15050 ft | 394 kts | 343° |
| 2026-05-05 17:13 | 22.29852 | 72.77287 | 14408 ft | 390 kts | 343° |
| 2026-05-05 17:13 | 22.32481 | 72.76538 | 13772 ft | 390 kts | 343° |
| 2026-05-05 17:13 | 22.35098 | 72.75780 | 13091 ft | 388 kts | 343° |
| 2026-05-05 17:14 | 22.37686 | 72.75030 | 12443 ft | 383 kts | 343° |
| 2026-05-05 17:14 | 22.40249 | 72.74293 | 11796 ft | 378 kts | 343° |
| 2026-05-05 17:14 | 22.42778 | 72.73566 | 11157 ft | 374 kts | 343° |
| 2026-05-05 17:14 | 22.45262 | 72.72849 | 10809 ft | 362 kts | 343° |
| 2026-05-05 17:15 | 22.47632 | 72.72165 | 10678 ft | 343 kts | 343° |
| 2026-05-05 17:15 | 22.49883 | 72.71516 | 10542 ft | 327 kts | 343° |
| 2026-05-05 17:15 | 22.52029 | 72.70897 | 10409 ft | 311 kts | 343° |
| 2026-05-05 17:15 | 22.54071 | 72.70306 | 10281 ft | 296 kts | 343° |
| 2026-05-05 17:16 | 22.56020 | 72.69743 | 10066 ft | 286 kts | 343° |
| 2026-05-05 17:16 | 22.57943 | 72.69186 | 9620 ft | 286 kts | 343° |
| 2026-05-05 17:16 | 22.59851 | 72.68628 | 9159 ft | 283 kts | 343° |
| 2026-05-05 17:16 | 22.61746 | 72.68073 | 8733 ft | 281 kts | 343° |
| 2026-05-05 17:17 | 22.63632 | 72.67521 | 8305 ft | 280 kts | 343° |
| 2026-05-05 17:17 | 22.65507 | 72.66974 | 7875 ft | 279 kts | 343° |
| 2026-05-05 17:17 | 22.67375 | 72.66427 | 7440 ft | 277 kts | 343° |
| 2026-05-05 17:17 | 22.69231 | 72.65884 | 7030 ft | 276 kts | 343° |
| 2026-05-05 17:18 | 22.71079 | 72.65344 | 6611 ft | 275 kts | 343° |
| 2026-05-05 17:18 | 22.72924 | 72.64804 | 6185 ft | 274 kts | 343° |
| 2026-05-05 17:18 | 22.74763 | 72.64266 | 5766 ft | 273 kts | 343° |
| 2026-05-05 17:18 | 22.76585 | 72.63733 | 5355 ft | 269 kts | 343° |
| 2026-05-05 17:19 | 22.78378 | 72.63208 | 4959 ft | 265 kts | 343° |
| 2026-05-05 17:19 | 22.80148 | 72.62692 | 4545 ft | 262 kts | 342° |
| 2026-05-05 17:19 | 22.81894 | 72.62180 | 4168 ft | 258 kts | 342° |
| 2026-05-05 17:19 | 22.83578 | 72.61688 | 3980 ft | 246 kts | 342° |
| 2026-05-05 17:20 | 22.85168 | 72.61230 | 3973 ft | 230 kts | 342° |
| 2026-05-05 17:20 | 22.86733 | 72.60788 | 3970 ft | 234 kts | 346° |
| 2026-05-05 17:20 | 22.88354 | 72.60891 | 3992 ft | 241 kts | 17° |
| 2026-05-05 17:20 | 22.89776 | 72.61867 | 4009 ft | 245 kts | 42° |
| 2026-05-05 17:21 | 22.90986 | 72.63186 | 3996 ft | 247 kts | 44° |
| 2026-05-05 17:21 | 22.92176 | 72.64529 | 3993 ft | 247 kts | 43° |
| 2026-05-05 17:21 | 22.93381 | 72.65862 | 3999 ft | 248 kts | 42° |
| 2026-05-05 17:22 | 22.95810 | 72.68520 | 4001 ft | 249 kts | 42° |
| 2026-05-05 17:22 | 22.97022 | 72.69848 | 3996 ft | 247 kts | 42° |
| 2026-05-05 17:22 | 22.98233 | 72.71175 | 3999 ft | 246 kts | 43° |
| 2026-05-05 17:22 | 22.99441 | 72.72499 | 4000 ft | 247 kts | 42° |
| 2026-05-05 17:23 | 23.00651 | 72.73824 | 4001 ft | 247 kts | 43° |
| 2026-05-05 17:23 | 23.01865 | 72.75151 | 3926 ft | 250 kts | 42° |
| 2026-05-05 17:23 | 23.03106 | 72.76466 | 3744 ft | 247 kts | 41° |
| 2026-05-05 17:23 | 23.04343 | 72.77767 | 3569 ft | 247 kts | 41° |
| 2026-05-05 17:24 | 23.05576 | 72.79071 | 3410 ft | 247 kts | 42° |
| 2026-05-05 17:24 | 23.06792 | 72.80343 | 3239 ft | 247 kts | 42° |
| 2026-05-05 17:24 | 23.08050 | 72.81647 | 3068 ft | 245 kts | 41° |
| 2026-05-05 17:24 | 23.09276 | 72.82915 | 2895 ft | 249 kts | 42° |
| 2026-05-05 17:25 | 23.10540 | 72.84211 | 2734 ft | 249 kts | 42° |
| 2026-05-05 17:25 | 23.11394 | 72.85075 | 2614 ft | 247 kts | 41° |
| 2026-05-05 17:25 | 23.13070 | 72.86768 | 2397 ft | 250 kts | 42° |
| 2026-05-05 17:25 | 23.14339 | 72.88036 | 2217 ft | 246 kts | 41° |
| 2026-05-05 17:26 | 23.15623 | 72.89303 | 2056 ft | 250 kts | 42° |
| 2026-05-05 17:26 | 23.16896 | 72.90539 | 1986 ft | 243 kts | 41° |
| 2026-05-05 17:26 | 23.18164 | 72.91770 | 1981 ft | 237 kts | 41° |
| 2026-05-05 17:26 | 23.19329 | 72.92891 | 1955 ft | 211 kts | 40° |
| 2026-05-05 17:27 | 23.20569 | 72.93641 | 1877 ft | 206 kts | 6° |
| 2026-05-05 17:27 | 23.21931 | 72.93439 | 1929 ft | 198 kts | 327° |
| 2026-05-05 17:27 | 23.23126 | 72.92591 | 2050 ft | 225 kts | 321° |
| 2026-05-05 17:27 | 23.24190 | 72.91229 | 2047 ft | 248 kts | 293° |
| 2026-05-05 17:28 | 23.24844 | 72.89483 | 2016 ft | 238 kts | 286° |
| 2026-05-05 17:28 | 23.25332 | 72.87875 | 1982 ft | 210 kts | 280° |
| 2026-05-05 17:28 | 23.25609 | 72.86433 | 1976 ft | 186 kts | 276° |
| 2026-05-05 17:28 | 23.25828 | 72.85049 | 1985 ft | 188 kts | 276° |
| 2026-05-05 17:29 | 23.26017 | 72.83655 | 1957 ft | 182 kts | 270° |
| 2026-05-05 17:29 | 23.25649 | 72.82394 | 1954 ft | 173 kts | 226° |
| 2026-05-05 17:29 | 23.24691 | 72.81641 | 1977 ft | 170 kts | 219° |
| 2026-05-05 17:29 | 23.23859 | 72.80736 | 2019 ft | 168 kts | 219° |
| 2026-05-05 17:30 | 23.23017 | 72.79845 | 1998 ft | 169 kts | 224° |
| 2026-05-05 17:30 | 23.22160 | 72.78960 | 2011 ft | 170 kts | 224° |
| 2026-05-05 17:30 | 23.21339 | 72.78079 | 2004 ft | 167 kts | 225° |
| 2026-05-05 17:30 | 23.20509 | 72.77185 | 2002 ft | 169 kts | 225° |
| 2026-05-05 17:31 | 23.19673 | 72.76285 | 2001 ft | 169 kts | 224° |
| 2026-05-05 17:31 | 23.18841 | 72.75390 | 2001 ft | 167 kts | 225° |
| 2026-05-05 17:31 | 23.18007 | 72.74493 | 2000 ft | 170 kts | 225° |
| 2026-05-05 17:31 | 23.17172 | 72.73596 | 1998 ft | 167 kts | 225° |
| 2026-05-05 17:32 | 23.16348 | 72.72704 | 2000 ft | 171 kts | 226° |
| 2026-05-05 17:32 | 23.15500 | 72.71785 | 1997 ft | 171 kts | 224° |
| 2026-05-05 17:32 | 23.14673 | 72.70895 | 1818 ft | 167 kts | 225° |
| 2026-05-05 17:32 | 23.13846 | 72.70001 | 1612 ft | 171 kts | 223° |
| 2026-05-05 17:33 | 23.13024 | 72.69123 | 1394 ft | 157 kts | 223° |
| 2026-05-05 17:33 | 23.12268 | 72.68315 | 1155 ft | 151 kts | 224° |
| 2026-05-05 17:33 | 23.11767 | 72.67779 | 1042 ft | 155 kts | 224° |
| 2026-05-05 17:33 | 23.10719 | 72.66654 | 741 ft | 161 kts | 223° |
| 2026-05-05 17:34 | 23.10196 | 72.66094 | 636 ft | 159 kts | 223° |
| 2026-05-05 17:34 | 23.09405 | 72.65233 | 401 ft | 161 kts | 222° |
| 2026-05-05 17:34 | 23.08611 | 72.64400 | 213 ft | 154 kts | 224° |
| 2026-05-05 17:34 | 23.07970 | 72.63715 | 208 ft | 101 kts | 225° |
| 2026-05-05 17:35 | 23.07602 | 72.63317 | 213 ft | 54 kts | 225° |
| 2026-05-05 17:35 | 23.07373 | 72.63078 | 214 ft | 43 kts | 225° |
| 2026-05-05 17:35 | 23.07206 | 72.62886 | 211 ft | 20 kts | 239° |
| 2026-05-05 17:35 | 23.07169 | 72.62747 | 206 ft | 19 kts | 259° |
| 2026-05-05 17:36 | 23.07158 | 72.62626 | 202 ft | 13 kts | 284° |
| 2026-05-05 17:36 | 23.07205 | 72.62551 | 202 ft | 11 kts | 310° |
| 2026-05-05 17:36 | 23.07248 | 72.62499 | 212 ft | 4 kts | 314° |
| 2026-05-05 17:36 | 23.07251 | 72.62498 | 212 ft | 0 kts | 320° |
| 2026-05-05 17:37 | 23.07252 | 72.62496 | 201 ft | 3 kts | 320° |
| 2026-05-05 17:37 | 23.07301 | 72.62482 | 206 ft | 6 kts | 5° |
| 2026-05-05 17:37 | 23.07309 | 72.62486 | 209 ft | 0 kts | 27° |
| 2026-05-05 17:38 | 23.07310 | 72.62489 | 209 ft | 0 kts | 37° |
| 2026-05-05 17:38 | 23.07312 | 72.62493 | 208 ft | 1 kts | 53° |
| 2026-05-05 17:38 | 23.07320 | 72.62509 | 232 ft | 5 kts | 59° |
| 2026-05-05 17:38 | 23.07356 | 72.62552 | 210 ft | 10 kts | 44° |
| 2026-05-05 17:39 | 23.07404 | 72.62605 | 212 ft | 10 kts | 46° |
| 2026-05-05 17:39 | 23.07451 | 72.62657 | 215 ft | 3 kts | 43° |
| 2026-05-05 17:39 | 23.07458 | 72.62662 | 215 ft | 2 kts | 32° |
| 2026-05-05 17:39 | 23.07470 | 72.62665 | 208 ft | 2 kts | 13° |
| 2026-05-05 17:40 | 23.07481 | 72.62664 | 213 ft | 2 kts | 355° |
| 2026-05-05 17:40 | 23.07489 | 72.62660 | 210 ft | 1 kts | 337° |
| 2026-05-05 17:40 | 23.07498 | 72.62654 | 211 ft | 3 kts | 327° |
| 2026-05-05 17:40 | 23.07513 | 72.62642 | 205 ft | 2 kts | 322° |
| 2026-05-05 17:41 | 23.07519 | 72.62636 | 215 ft | 0 kts | 321° |